Kaltag, AK

4:56 AM AKDT on July 29, 2016 (GMT -0800)
Kaltag | | Change Station
Active Advisory: Areal Flood Watch

Elev 200 ft 64.32 °N, 158.74 °W | Updated 3 minutes ago

Mostly Cloudy
Mostly Cloudy
55 °F
Feels Like 55 °F
N
5
Wind Variable Wind from SSW

Today
High -- | Low -- °F
--% Chance of Precip.
Yesterday
High -- | Low -- °F
Precip. -- in
Pressure 29.85 in
Visibility 10.0 miles
Clouds Few 5000 ft
Mostly Cloudy 7500 ft
Dew Point 51 °F
Humidity 86%
Rainfall 0.00 in
Snow Depth Not available.
5:32 AM 11:47 PM
Waning Crescent, 22% visible
METAR PAKV 291253Z AUTO 20004KT 10SM FEW050 BKN075 13/11 A2985 RMK AO2 SLP108 T01280106 TSNO
Pressure 29.85 in
Visibility 10.0 miles
Clouds Few 5000 ft
Mostly Cloudy 7500 ft
Dew Point 51 °F
Humidity 86%
Rainfall 0.00 in
Snow Depth Not available.
5:32 AM 11:47 PM
Waning Crescent, 22% visible
METAR PAKV 291253Z AUTO 20004KT 10SM FEW050 BKN075 13/11 A2985 RMK AO2 SLP108 T01280106 TSNO

10-Day Weather Forecast

Almanac

Astronomy

Jul. 29, 2016 Rise Set
Actual Time
Civil Twilight
Nautical Twilight
Astronomical Twilight
Moon
Length of Visible Light
Length of Day
Tomorrow will be .
, % of the Moon is Illuminated

Today's Extremes

State Highs State Lows

Community

WunderPhotos

Upload Photos

1,928,335 photos uploaded!

WunderBlog® & News

Nearby

Air Quality

  Air Quality AQ Index Pollutant
Not available.

Snow Depth

Station Depth Elevation

Earthquake Activity

City Distance Mag. Time & Date
Minimum magnitude displayed is 2.5.

Coastal Water Temperatures

Place Temperature

Stations

Nearby Weather Stations

Station Location Temp. Windchill Dew Point Humidity Wind Precip. Elev Updated Type
                   

Watches & Warnings

Areal Flood Watch
Issued: 1:08 PM AKDT Jul. 28, 2016 – National Weather Service

... Flood Watch remains in effect from Friday afternoon through
Saturday evening...

The Flood Watch continues for

* the Nulato Hills.

* From Friday afternoon through Saturday evening

* heavy rainfall is forecast for the area beginning Friday
morning and extending through early Saturday morning. Forecast
rainfall amounts are between 1 and 2 inches with the
possibility of locally heavier amounts.

* Rapid rises will occur on the small streams and rivers
draining the Nulato Hills. Small streams and rivers will rise
to bankfull or overbank Friday afternoon into Saturday morning
followed by significant rises on the larger rivers. Minor
flooding in possible in low lying areas in this region.

Precautionary/preparedness actions...

A Flood Watch means there is a potential for flooding based on
current forecasts.

You should monitor later forecasts and be alert for possible
flood warnings. Those living in areas prone to flooding should be
prepared to take action should flooding develop.